Friday Harbor, Washington
Current Conditions -  °F | °C
As of 9:53 AM on Saturday 25 Oct 2014 (Local Time) from KFHR Reporting Station
Broken Clouds Broken Clouds  
Wind Chill: 50°   Ceiling: 9000
Heat Index: 50°   Visibility: 10mi
Dew Point: 47°   Wind: 8mph
Humidity: 89%   Direction: 30°NNE
Pressure: 29.47"   Gusts: NA
Location:  48.53°N, 123.02°W
Report Text: KFHR 251653Z AUTO 03007KT 10SM SCT021 BKN090 10/08 A2947 RMK AO2 RAB08E17 SLP979 P0000 T01000083
Loading
Personal Weather Stations






























Interactive Weather Map New forecast layout! Learn more

10-Day Weather Forecast

Advertisements
Track Severe Weather on mobile